Time;durP1;ratioP1;P1;durP2;ratioP2;P2;SDS_P1;SDS_P2;PMS_P1;PMS_P2;Temp;Humidity;BMP_temperature;BMP_pressure;BME280_temperature;BME280_humidity;BME280_pressure;Samples;Min_cycle;Max_cycle;Signal;HPM_P1;HPM_P2
2021/03/22 00:02:45;;;;;;;0.83;0.80;;;9.30;99.90;;;;;;20530406;28;20333;-70
2021/03/22 00:12:49;;;;;;;1.43;1.10;;;9.30;99.90;;;;;;20515838;28;20228;-70
2021/03/22 00:23:03;;;;;;;0.50;0.37;;;9.20;99.90;;;;;;20496990;28;20443;-70
2021/03/22 00:33:10;;;;;;;7.27;0.63;;;9.00;99.90;;;;;;20529375;28;20230;-71
2021/03/22 00:43:14;;;;;;;0.60;0.43;;;8.90;99.90;;;;;;20529991;28;20515;-73
2021/03/22 00:53:27;;;;;;;2.80;1.27;;;9.00;99.90;;;;;;20529212;28;20223;-72
2021/03/22 01:03:49;;;;;;;1.07;0.77;;;8.60;99.90;;;;;;20557973;23;20239;-74
2021/03/22 01:13:59;;;;;;;0.63;0.63;;;8.70;99.90;;;;;;20544188;28;20234;-74
2021/03/22 01:24:05;;;;;;;0.50;0.37;;;8.30;99.90;;;;;;20544763;28;20807;-75
2021/03/22 01:34:08;;;;;;;0.20;0.10;;;8.30;99.90;;;;;;20539465;28;20570;-73
2021/03/22 01:44:32;;;;;;;0.57;0.40;;;8.10;99.90;;;;;;20217108;29;20203;-71
2021/03/22 01:54:34;;;;;;;0.20;0.20;;;7.90;99.90;;;;;;20214522;29;20238;-71
2021/03/22 02:04:41;;;;;;;1.57;0.83;;;7.90;99.90;;;;;;20394324;23;20590;-70
2021/03/22 02:14:43;;;;;;;0.20;0.20;;;7.80;99.90;;;;;;20538135;28;20232;-70
2021/03/22 02:25:09;;;;;;;0.87;0.50;;;7.60;99.90;;;;;;20541642;28;20200;-69
2021/03/22 02:35:19;;;;;;;0.20;0.10;;;7.70;99.90;;;;;;20537743;28;20652;-70
2021/03/22 02:45:27;;;;;;;0.63;0.20;;;7.60;99.90;;;;;;20535449;28;20196;-72
2021/03/22 02:55:40;;;;;;;0.20;0.00;;;7.40;99.90;;;;;;20535430;28;20247;-71
2021/03/22 03:05:49;;;;;;;1.23;0.43;;;7.50;99.90;;;;;;20505501;23;20236;-71
2021/03/22 03:15:53;;;;;;;1.33;0.50;;;7.60;99.90;;;;;;20454102;28;20236;-73
2021/03/22 03:25:56;;;;;;;0.27;0.27;;;7.40;99.90;;;;;;20452615;28;20779;-73
2021/03/22 03:36:00;;;;;;;0.20;0.13;;;7.00;99.90;;;;;;20453719;28;20592;-73
2021/03/22 03:46:03;;;;;;;0.20;0.10;;;7.40;99.90;;;;;;20452093;28;20490;-73
2021/03/22 03:56:07;;;;;;;1.33;1.30;;;7.50;99.90;;;;;;20452482;28;20488;-72
2021/03/22 04:06:12;;;;;;;0.20;0.10;;;7.70;99.90;;;;;;20452985;28;20265;-71
2021/03/22 04:16:16;;;;;;;2.17;1.27;;;7.40;99.90;;;;;;20450728;28;20391;-71
2021/03/22 04:26:19;;;;;;;0.50;0.50;;;7.70;99.90;;;;;;20372917;28;20280;-71
2021/03/22 04:36:27;;;;;;;1.43;1.33;;;7.50;99.90;;;;;;20386455;29;20656;-71
2021/03/22 04:46:30;;;;;;;1.17;1.07;;;7.80;99.90;;;;;;20386709;29;20216;-71
2021/03/22 04:56:39;;;;;;;3.40;1.37;;;8.00;99.90;;;;;;20369074;29;20248;-72
2021/03/22 05:06:42;;;;;;;2.03;0.70;;;7.90;99.90;;;;;;20388151;29;20832;-71
2021/03/22 05:16:45;;;;;;;1.93;1.83;;;7.90;99.90;;;;;;20388712;29;20234;-72
2021/03/22 05:26:56;;;;;;;0.50;0.50;;;7.90;99.90;;;;;;20483033;28;20282;-72
2021/03/22 05:36:59;;;;;;;5.63;1.83;;;7.80;99.90;;;;;;20463671;28;20623;-72
2021/03/22 05:47:12;;;;;;;0.53;0.53;;;8.00;99.90;;;;;;20464947;28;20348;-72
2021/03/22 05:57:30;;;;;;;0.67;0.60;;;7.90;99.90;;;;;;20463731;28;20232;-73
2021/03/22 06:07:44;;;;;;;2.03;1.30;;;7.90;99.90;;;;;;20460838;28;20232;-72
2021/03/22 06:17:55;;;;;;;1.07;0.73;;;7.70;99.90;;;;;;20447297;28;20217;-72
2021/03/22 06:28:05;;;;;;;1.17;0.90;;;7.80;99.90;;;;;;20380057;29;20235;-72
2021/03/22 06:38:09;;;;;;;0.30;0.30;;;7.90;99.90;;;;;;20380949;29;21049;-72
2021/03/22 06:48:19;;;;;;;1.17;0.40;;;8.30;99.90;;;;;;20377407;29;20204;-73
2021/03/22 06:58:27;;;;;;;1.00;1.00;;;8.70;99.90;;;;;;20371907;29;20232;-72
2021/03/22 07:08:39;;;;;;;1.03;0.73;;;9.20;99.90;;;;;;20370417;29;20229;-70
2021/03/22 07:18:43;;;;;;;0.30;0.30;;;9.60;99.90;;;;;;20387390;28;20705;-72
2021/03/22 07:28:57;;;;;;;0.40;0.33;;;9.80;99.90;;;;;;20455074;28;20388;-74
2021/03/22 07:39:28;;;;;;;1.43;0.90;;;10.00;99.90;;;;;;20452654;28;20224;-71
2021/03/22 07:49:44;;;;;;;1.80;0.97;;;10.40;99.90;;;;;;20453439;28;20192;-72
2021/03/22 08:00:00;;;;;;;1.07;0.77;;;10.90;99.90;;;;;;20440661;28;20220;-72
2021/03/22 08:10:29;;;;;;;0.50;0.30;;;11.40;99.90;;;;;;20449737;28;20293;-72
2021/03/22 08:20:37;;;;;;;2.10;1.10;;;11.50;99.90;;;;;;20414464;28;20206;-74
2021/03/22 08:30:48;;;;;;;0.80;0.60;;;11.90;99.90;;;;;;20373153;29;20218;-72
2021/03/22 08:40:56;;;;;;;0.40;0.40;;;12.00;99.90;;;;;;20368505;29;20213;-71
2021/03/22 08:51:01;;;;;;;4.50;1.17;;;12.60;99.90;;;;;;20379658;29;20331;-71
2021/03/22 09:01:21;;;;;;;0.73;0.73;;;12.80;99.90;;;;;;20389617;29;20224;-74
2021/03/22 09:11:31;;;;;;;0.63;0.60;;;13.20;99.90;;;;;;20389506;28;20511;-74
2021/03/22 09:21:36;;;;;;;0.73;0.67;;;13.50;99.90;;;;;;20421299;28;20552;-70
2021/03/22 09:31:47;;;;;;;2.50;1.27;;;14.10;99.90;;;;;;20477437;28;20589;-75
2021/03/22 09:42:17;;;;;;;1.20;1.10;;;14.20;99.90;;;;;;20460698;28;20283;-72
2021/03/22 09:52:26;;;;;;;1.27;0.97;;;14.20;99.90;;;;;;20458316;28;20229;-72
2021/03/22 10:02:42;;;;;;;5.30;0.93;;;14.20;99.90;;;;;;20457069;28;20276;-71
2021/03/22 10:12:50;;;;;;;6.27;2.67;;;14.30;99.90;;;;;;20457850;28;20228;-71
2021/03/22 10:23:01;;;;;;;0.50;0.40;;;14.70;99.90;;;;;;20453294;28;20193;-72
2021/03/22 10:33:12;;;;;;;0.70;0.70;;;15.00;99.90;;;;;;20456462;28;20501;-72
2021/03/22 10:43:31;;;;;;;1.10;1.07;;;15.70;99.90;;;;;;20457405;28;20311;-71
2021/03/22 10:53:35;;;;;;;29.73;2.13;;;16.80;99.90;;;;;;20456797;28;20224;-73
2021/03/22 11:03:40;;;;;;;1.73;1.07;;;17.40;99.90;;;;;;20455125;28;20228;-73
2021/03/22 11:13:46;;;;;;;2.67;0.93;;;18.20;99.90;;;;;;20428546;23;20267;-72
2021/03/22 11:23:53;;;;;;;5.10;2.93;;;18.20;99.90;;;;;;20547395;28;20214;-71
2021/03/22 11:34:02;;;;;;;1.07;0.80;;;18.90;99.90;;;;;;20530607;28;20228;-72
2021/03/22 11:44:24;;;;;;;0.90;0.87;;;18.90;99.90;;;;;;20533641;28;20192;-71
2021/03/22 11:54:31;;;;;;;4.17;1.80;;;19.50;99.90;;;;;;20536174;28;20763;-72
2021/03/22 12:04:35;;;;;;;1.97;1.13;;;19.40;99.90;;;;;;20530362;28;20689;-71
2021/03/22 12:14:38;;;;;;;2.20;1.23;;;19.40;99.90;;;;;;20531858;28;20236;-70
2021/03/22 12:24:41;;;;;;;1.70;1.33;;;19.30;99.90;;;;;;20527435;28;20274;-70
2021/03/22 12:34:44;;;;;;;0.43;0.43;;;18.30;99.90;;;;;;20529998;28;20736;-72
2021/03/22 12:44:48;;;;;;;2.10;1.43;;;18.40;99.90;;;;;;20527143;28;20740;-72
2021/03/22 12:54:50;;;;;;;22.83;0.80;;;20.10;99.90;;;;;;20538172;28;20301;-72
2021/03/22 13:04:54;;;;;;;0.80;0.73;;;20.60;99.90;;;;;;20541496;28;20335;-72
2021/03/22 13:14:57;;;;;;;1.50;0.83;;;20.70;99.90;;;;;;20541466;28;20232;-70
2021/03/22 13:25:03;;;;;;;1.30;0.90;;;21.00;99.90;;;;;;20540806;28;20254;-68
2021/03/22 13:35:07;;;;;;;1.53;0.70;;;22.00;99.90;;;;;;20518413;28;20291;-71
2021/03/22 13:45:21;;;;;;;1.33;0.93;;;22.00;99.90;;;;;;20458346;28;20224;-71
2021/03/22 13:55:23;;;;;;;0.80;0.80;;;22.10;99.90;;;;;;20478039;28;20234;-71
2021/03/22 14:05:27;;;;;;;0.30;0.30;;;23.20;99.90;;;;;;20540838;28;20542;-69
2021/03/22 14:15:34;;;;;;;0.67;0.63;;;23.00;99.90;;;;;;20535887;28;20239;-70
2021/03/22 14:25:38;;;;;;;1.13;0.70;;;23.80;99.90;;;;;;20538891;28;20618;-70
2021/03/22 14:35:42;;;;;;;6.43;2.83;;;22.80;99.90;;;;;;20533861;28;20312;-70
2021/03/22 14:45:46;;;;;;;0.77;0.77;;;22.90;99.90;;;;;;20511436;28;20208;-70
2021/03/22 14:55:48;;;;;;;1.37;0.80;;;22.40;99.90;;;;;;20489382;28;20267;-69
2021/03/22 15:05:52;;;;;;;11.40;5.70;;;22.40;99.90;;;;;;20532675;28;20373;-71
2021/03/22 15:15:54;;;;;;;1.50;1.40;;;20.70;99.90;;;;;;20527884;28;20242;-69
2021/03/22 15:25:59;;;;;;;1.30;1.07;;;19.90;99.90;;;;;;20530053;28;20825;-71
2021/03/22 15:36:07;;;;;;;4.23;2.60;;;20.60;99.90;;;;;;20528912;28;20226;-71
2021/03/22 15:46:11;;;;;;;15.10;1.17;;;20.80;99.90;;;;;;20529812;28;20552;-70
2021/03/22 15:56:14;;;;;;;11.47;1.33;;;20.40;99.90;;;;;;20544137;28;20658;-69
2021/03/22 16:06:18;;;;;;;2.00;0.50;;;19.40;99.90;;;;;;20537530;28;20235;-68
2021/03/22 16:16:21;;;;;;;5.47;1.50;;;19.50;99.90;;;;;;20526727;28;20231;-68
2021/03/22 16:26:25;;;;;;;5.50;0.90;;;18.40;99.90;;;;;;20535785;28;20208;-68
2021/03/22 16:36:27;;;;;;;6.50;1.20;;;17.80;99.90;;;;;;20544562;28;20716;-68
2021/03/22 16:46:31;;;;;;;1.30;1.20;;;17.20;99.90;;;;;;20543281;28;20615;-71
2021/03/22 16:56:33;;;;;;;0.70;0.70;;;17.00;99.90;;;;;;20542203;28;20224;-72
2021/03/22 17:06:37;;;;;;;1.00;0.60;;;17.20;99.90;;;;;;20543694;28;20628;-72
2021/03/22 17:16:40;;;;;;;0.50;0.50;;;16.80;99.90;;;;;;20520152;28;20755;-71
2021/03/22 17:26:43;;;;;;;1.63;1.07;;;16.30;99.90;;;;;;20537724;28;20200;-69
2021/03/22 17:36:46;;;;;;;0.60;0.60;;;15.90;99.90;;;;;;20536571;28;20223;-71
2021/03/22 17:46:49;;;;;;;0.90;0.77;;;15.50;99.90;;;;;;20539907;28;20451;-69
2021/03/22 17:56:52;;;;;;;1.40;1.30;;;15.30;99.90;;;;;;20537497;28;20374;-68
2021/03/22 18:06:56;;;;;;;1.17;1.03;;;15.10;99.90;;;;;;20520544;28;20208;-70
2021/03/22 18:16:59;;;;;;;0.93;0.93;;;14.90;99.90;;;;;;20456353;28;20272;-69
2021/03/22 18:27:03;;;;;;;0.40;0.40;;;14.80;99.90;;;;;;20534969;28;20220;-71
2021/03/22 18:37:06;;;;;;;0.40;0.37;;;14.60;99.90;;;;;;20531268;28;20262;-69
2021/03/22 18:47:09;;;;;;;3.17;1.07;;;14.30;99.90;;;;;;20547938;28;20265;-70
2021/03/22 18:57:12;;;;;;;1.80;1.13;;;14.20;99.90;;;;;;20545552;28;20648;-70
2021/03/22 19:07:18;;;;;;;1.07;0.90;;;14.20;99.90;;;;;;20531094;28;20557;-73
2021/03/22 19:17:20;;;;;;;2.10;1.20;;;14.10;99.90;;;;;;20524464;28;20233;-71
2021/03/22 19:27:25;;;;;;;2.53;1.70;;;14.00;99.90;;;;;;20467530;28;20278;-71
2021/03/22 19:37:39;;;;;;;1.40;0.80;;;13.70;99.90;;;;;;20529772;28;20235;-71
2021/03/22 19:47:42;;;;;;;0.90;0.67;;;12.90;99.90;;;;;;20530122;28;20200;-72
2021/03/22 19:57:45;;;;;;;1.20;1.20;;;12.40;99.90;;;;;;20528838;28;20278;-70
2021/03/22 20:08:05;;;;;;;0.80;0.80;;;11.90;99.90;;;;;;20524345;28;20200;-70
2021/03/22 20:18:08;;;;;;;1.47;1.33;;;11.60;99.90;;;;;;20515340;28;20531;-68
2021/03/22 20:28:14;;;;;;;1.40;1.17;;;11.60;99.90;;;;;;20449456;28;20201;-72
2021/03/22 20:38:25;;;;;;;0.37;0.37;;;11.70;99.90;;;;;;20507995;28;20228;-70
2021/03/22 20:48:29;;;;;;;1.00;0.40;;;11.30;99.90;;;;;;20529139;28;20223;-70
2021/03/22 20:58:31;;;;;;;0.57;0.50;;;11.00;99.90;;;;;;20528243;28;20231;-71
2021/03/22 21:08:48;;;;;;;1.13;1.00;;;10.90;99.90;;;;;;20496630;28;20675;-71
2021/03/22 21:18:51;;;;;;;2.10;1.43;;;10.60;99.90;;;;;;20540598;28;20227;-70
2021/03/22 21:28:55;;;;;;;0.40;0.40;;;10.60;99.90;;;;;;20540972;28;20551;-71
2021/03/22 21:39:12;;;;;;;1.00;1.00;;;10.60;99.90;;;;;;20505349;28;20776;-71
2021/03/22 21:49:15;;;;;;;0.67;0.53;;;10.30;99.90;;;;;;20500649;28;20205;-72
2021/03/22 21:59:19;;;;;;;0.73;0.50;;;10.20;99.90;;;;;;20509565;28;20239;-70
2021/03/22 22:09:35;;;;;;;0.20;0.10;;;10.10;99.90;;;;;;20495065;28;20219;-71
2021/03/22 22:19:38;;;;;;;0.90;0.67;;;10.00;99.90;;;;;;20531703;28;20278;-71
2021/03/22 22:29:43;;;;;;;0.60;0.33;;;9.90;99.90;;;;;;20519816;28;20250;-69
2021/03/22 22:39:55;;;;;;;18.47;1.07;;;10.00;99.90;;;;;;20529820;28;20227;-72
2021/03/22 22:49:58;;;;;;;0.47;0.40;;;9.70;99.90;;;;;;20500216;28;20643;-72
2021/03/22 23:00:01;;;;;;;0.27;0.20;;;9.70;99.90;;;;;;20457564;28;20232;-71
2021/03/22 23:10:21;;;;;;;1.07;0.40;;;9.90;99.90;;;;;;20443048;28;20203;-71
2021/03/22 23:20:25;;;;;;;1.27;1.17;;;9.90;99.90;;;;;;20474469;28;20225;-71
2021/03/22 23:30:31;;;;;;;0.70;0.70;;;9.70;99.90;;;;;;20493324;28;20268;-71
2021/03/22 23:40:49;;;;;;;1.87;0.53;;;9.50;99.90;;;;;;20493013;28;20694;-71
2021/03/22 23:50:54;;;;;;;0.43;0.33;;;9.40;99.90;;;;;;20511208;28;20215;-71
